DLH5YL EDDS-EDDF
Flight info
| Callsign | DLH5YL |
|---|---|
| Flight time | 0h 23m |
| Altitude | 22000 |
| Route | ETASA2H ETASA T163 SPESA SPESA5B |
| Aircraft | A319/M-SDE2E3FGIJ1LORWXYZ/HB1 |
Departure
| Time | 2026-04-18 09:29 |
|---|---|
| Airport | Stuttgart Airport (EDDS) |
Arrival
| Time | 2026-04-18 09:52 |
|---|---|
| Airport | Frankfurt Main Airport (EDDF) |
| Time | Latitude | Longitude | Altitude | Speed | Heading |
|---|---|---|---|---|---|
| 2026-04-18 09:05 | 48.68795 | 9.19681 | 1304 ft | 0 kts | 165° |
| 2026-04-18 09:25 | 48.68793 | 9.19682 | 1304 ft | 2 kts | 165° |
| 2026-04-18 09:25 | 48.68755 | 9.19699 | 1302 ft | 9 kts | 161° |
| 2026-04-18 09:26 | 48.68747 | 9.19794 | 1298 ft | 12 kts | 74° |
| 2026-04-18 09:26 | 48.68764 | 9.19939 | 1294 ft | 16 kts | 93° |
| 2026-04-18 09:26 | 48.68731 | 9.20063 | 1289 ft | 12 kts | 123° |
| 2026-04-18 09:26 | 48.68709 | 9.20153 | 1287 ft | 0 kts | 104° |
| 2026-04-18 09:27 | 48.68709 | 9.20154 | 1285 ft | 1 kts | 104° |
| 2026-04-18 09:28 | 48.68695 | 9.20236 | 1280 ft | 17 kts | 104° |
| 2026-04-18 09:28 | 48.68668 | 9.20437 | 1276 ft | 21 kts | 100° |
| 2026-04-18 09:28 | 48.68710 | 9.20734 | 1271 ft | 53 kts | 73° |
| 2026-04-18 09:28 | 48.68888 | 9.21676 | 1249 ft | 130 kts | 74° |
| 2026-04-18 09:29 | 48.69192 | 9.23245 | 1456 ft | 165 kts | 73° |
| 2026-04-18 09:29 | 48.69502 | 9.24867 | 2306 ft | 158 kts | 73° |
| 2026-04-18 09:29 | 48.69816 | 9.26483 | 2990 ft | 166 kts | 73° |
| 2026-04-18 09:29 | 48.70162 | 9.28207 | 3584 ft | 177 kts | 70° |
| 2026-04-18 09:30 | 48.70920 | 9.29690 | 4171 ft | 187 kts | 32° |
| 2026-04-18 09:30 | 48.72214 | 9.30149 | 4699 ft | 201 kts | 353° |
| 2026-04-18 09:30 | 48.73591 | 9.29429 | 5244 ft | 220 kts | 338° |
| 2026-04-18 09:30 | 48.75070 | 9.28498 | 5893 ft | 238 kts | 338° |
| 2026-04-18 09:31 | 48.76675 | 9.27584 | 6486 ft | 260 kts | 345° |
| 2026-04-18 09:31 | 48.78519 | 9.26967 | 7151 ft | 277 kts | 348° |
| 2026-04-18 09:31 | 48.80421 | 9.26339 | 8124 ft | 283 kts | 347° |
| 2026-04-18 09:31 | 48.82358 | 9.25685 | 9142 ft | 287 kts | 347° |
| 2026-04-18 09:32 | 48.84320 | 9.25011 | 10116 ft | 291 kts | 347° |
| 2026-04-18 09:32 | 48.86348 | 9.24308 | 10760 ft | 310 kts | 346° |
| 2026-04-18 09:32 | 48.88508 | 9.23553 | 11417 ft | 324 kts | 346° |
| 2026-04-18 09:32 | 48.90724 | 9.22774 | 12356 ft | 328 kts | 345° |
| 2026-04-18 09:33 | 48.92956 | 9.21991 | 13296 ft | 331 kts | 345° |
| 2026-04-18 09:33 | 48.95211 | 9.21204 | 14197 ft | 334 kts | 345° |
| 2026-04-18 09:33 | 48.97497 | 9.20407 | 15056 ft | 338 kts | 345° |
| 2026-04-18 09:33 | 48.99800 | 9.19605 | 15881 ft | 342 kts | 345° |
| 2026-04-18 09:34 | 49.02130 | 9.18792 | 16699 ft | 345 kts | 345° |
| 2026-04-18 09:34 | 49.04499 | 9.17962 | 17498 ft | 348 kts | 345° |
| 2026-04-18 09:34 | 49.06850 | 9.17140 | 18260 ft | 351 kts | 345° |
| 2026-04-18 09:34 | 49.09279 | 9.16291 | 19011 ft | 355 kts | 345° |
| 2026-04-18 09:35 | 49.11701 | 9.15441 | 19716 ft | 359 kts | 345° |
| 2026-04-18 09:35 | 49.14148 | 9.14577 | 20409 ft | 363 kts | 344° |
| 2026-04-18 09:35 | 49.16622 | 9.13701 | 21084 ft | 367 kts | 345° |
| 2026-04-18 09:35 | 49.19163 | 9.13069 | 21482 ft | 372 kts | 354° |
| 2026-04-18 09:36 | 49.21764 | 9.13183 | 21809 ft | 376 kts | 3° |
| 2026-04-18 09:36 | 49.24377 | 9.13575 | 22113 ft | 379 kts | 2° |
| 2026-04-18 09:36 | 49.26945 | 9.13953 | 22110 ft | 371 kts | 2° |
| 2026-04-18 09:36 | 49.29487 | 9.14323 | 21776 ft | 364 kts | 2° |
| 2026-04-18 09:37 | 49.31991 | 9.14953 | 21277 ft | 365 kts | 10° |
| 2026-04-18 09:37 | 49.34459 | 9.15834 | 20794 ft | 363 kts | 10° |
| 2026-04-18 09:37 | 49.36911 | 9.16730 | 20341 ft | 361 kts | 11° |
| 2026-04-18 09:37 | 49.39341 | 9.17629 | 19893 ft | 358 kts | 11° |
| 2026-04-18 09:38 | 49.41758 | 9.18533 | 19436 ft | 356 kts | 11° |
| 2026-04-18 09:38 | 49.44157 | 9.19432 | 18990 ft | 354 kts | 11° |
| 2026-04-18 09:38 | 49.46537 | 9.20325 | 18543 ft | 351 kts | 11° |
| 2026-04-18 09:38 | 49.48903 | 9.21208 | 18117 ft | 349 kts | 11° |
| 2026-04-18 09:39 | 49.51255 | 9.22083 | 17679 ft | 347 kts | 11° |
| 2026-04-18 09:39 | 49.53590 | 9.22948 | 17232 ft | 344 kts | 11° |
| 2026-04-18 09:39 | 49.55916 | 9.23811 | 16817 ft | 343 kts | 11° |
| 2026-04-18 09:39 | 49.58223 | 9.24670 | 16405 ft | 340 kts | 11° |
| 2026-04-18 09:40 | 49.60521 | 9.25527 | 15988 ft | 339 kts | 11° |
| 2026-04-18 09:40 | 49.62805 | 9.26379 | 15590 ft | 337 kts | 11° |
| 2026-04-18 09:40 | 49.65076 | 9.27225 | 15173 ft | 335 kts | 11° |
| 2026-04-18 09:40 | 49.66604 | 9.27788 | 14904 ft | 334 kts | 11° |
| 2026-04-18 09:41 | 49.68859 | 9.28609 | 14503 ft | 331 kts | 11° |
| 2026-04-18 09:41 | 49.71100 | 9.29424 | 14102 ft | 330 kts | 11° |
| 2026-04-18 09:41 | 49.73296 | 9.30223 | 13683 ft | 328 kts | 11° |
| 2026-04-18 09:41 | 49.75560 | 9.30803 | 13377 ft | 322 kts | 359° |
| 2026-04-18 09:42 | 49.77724 | 9.30318 | 13142 ft | 318 kts | 339° |
| 2026-04-18 09:42 | 49.79738 | 9.28944 | 12898 ft | 316 kts | 333° |
| 2026-04-18 09:42 | 49.81721 | 9.27467 | 12642 ft | 316 kts | 332° |
| 2026-04-18 09:42 | 49.83689 | 9.25986 | 12400 ft | 315 kts | 332° |
| 2026-04-18 09:43 | 49.85655 | 9.24499 | 12054 ft | 313 kts | 332° |
| 2026-04-18 09:43 | 49.87606 | 9.23016 | 11671 ft | 312 kts | 332° |
| 2026-04-18 09:43 | 49.89557 | 9.21538 | 11157 ft | 314 kts | 332° |
| 2026-04-18 09:43 | 49.91520 | 9.20057 | 10759 ft | 311 kts | 333° |
| 2026-04-18 09:44 | 49.93460 | 9.18590 | 10278 ft | 310 kts | 332° |
| 2026-04-18 09:44 | 49.95390 | 9.17130 | 9874 ft | 307 kts | 333° |
| 2026-04-18 09:44 | 49.97274 | 9.15705 | 9748 ft | 295 kts | 333° |
| 2026-04-18 09:44 | 49.99102 | 9.14320 | 9389 ft | 292 kts | 332° |
| 2026-04-18 09:45 | 50.00920 | 9.12943 | 8971 ft | 290 kts | 333° |
| 2026-04-18 09:45 | 50.02733 | 9.11569 | 8533 ft | 289 kts | 332° |
| 2026-04-18 09:45 | 50.04528 | 9.10203 | 8196 ft | 285 kts | 332° |
| 2026-04-18 09:45 | 50.06299 | 9.08850 | 7799 ft | 282 kts | 332° |
| 2026-04-18 09:46 | 50.08060 | 9.07504 | 7406 ft | 281 kts | 332° |
| 2026-04-18 09:46 | 50.09768 | 9.06073 | 6997 ft | 278 kts | 322° |
| 2026-04-18 09:46 | 50.11007 | 9.03840 | 6530 ft | 271 kts | 294° |
| 2026-04-18 09:46 | 50.11627 | 9.01105 | 6034 ft | 266 kts | 285° |
| 2026-04-18 09:47 | 50.12124 | 8.98348 | 5534 ft | 263 kts | 284° |
| 2026-04-18 09:47 | 50.12428 | 8.95575 | 5031 ft | 259 kts | 268° |
| 2026-04-18 09:47 | 50.12096 | 8.92879 | 4690 ft | 249 kts | 250° |
| 2026-04-18 09:47 | 50.11514 | 8.90405 | 4512 ft | 237 kts | 249° |
| 2026-04-18 09:48 | 50.10953 | 8.88031 | 4253 ft | 229 kts | 249° |
| 2026-04-18 09:48 | 50.10418 | 8.85757 | 3971 ft | 222 kts | 249° |
| 2026-04-18 09:48 | 50.09890 | 8.83516 | 3673 ft | 217 kts | 249° |
| 2026-04-18 09:48 | 50.09376 | 8.81335 | 3408 ft | 212 kts | 249° |
| 2026-04-18 09:49 | 50.08861 | 8.79150 | 3111 ft | 209 kts | 249° |
| 2026-04-18 09:49 | 50.08371 | 8.77075 | 2873 ft | 199 kts | 249° |
| 2026-04-18 09:49 | 50.07904 | 8.75098 | 2575 ft | 191 kts | 249° |
| 2026-04-18 09:49 | 50.07476 | 8.73225 | 2320 ft | 177 kts | 252° |
| 2026-04-18 09:50 | 50.07213 | 8.71418 | 2064 ft | 167 kts | 260° |
| 2026-04-18 09:50 | 50.07036 | 8.69690 | 1852 ft | 156 kts | 258° |
| 2026-04-18 09:50 | 50.06758 | 8.68082 | 1642 ft | 153 kts | 251° |
| 2026-04-18 09:50 | 50.06382 | 8.66555 | 1420 ft | 150 kts | 247° |
| 2026-04-18 09:51 | 50.06008 | 8.65059 | 1220 ft | 146 kts | 250° |
| 2026-04-18 09:51 | 50.05660 | 8.63586 | 1031 ft | 145 kts | 252° |
| 2026-04-18 09:51 | 50.05323 | 8.62113 | 857 ft | 144 kts | 250° |
| 2026-04-18 09:51 | 50.04975 | 8.60649 | 669 ft | 146 kts | 250° |
| 2026-04-18 09:52 | 50.04625 | 8.59164 | 469 ft | 144 kts | 250° |
| 2026-04-18 09:52 | 50.04280 | 8.57753 | 367 ft | 129 kts | 249° |
| 2026-04-18 09:52 | 50.04018 | 8.56629 | 360 ft | 87 kts | 250° |
| 2026-04-18 09:52 | 50.03894 | 8.56070 | 360 ft | 35 kts | 260° |
| 2026-04-18 09:53 | 50.03900 | 8.55717 | 349 ft | 26 kts | 281° |
| 2026-04-18 09:53 | 50.03925 | 8.55633 | 352 ft | 8 kts | 330° |
| 2026-04-18 09:53 | 50.03981 | 8.55669 | 352 ft | 11 kts | 61° |
| 2026-04-18 09:53 | 50.04016 | 8.55810 | 350 ft | 16 kts | 70° |
| 2026-04-18 09:54 | 50.04061 | 8.56002 | 358 ft | 21 kts | 70° |
| 2026-04-18 09:54 | 50.04113 | 8.56219 | 358 ft | 22 kts | 70° |
| 2026-04-18 09:54 | 50.04165 | 8.56439 | 355 ft | 22 kts | 69° |
| 2026-04-18 09:54 | 50.04218 | 8.56658 | 356 ft | 21 kts | 70° |
| 2026-04-18 09:55 | 50.04262 | 8.56796 | 359 ft | 11 kts | 37° |
| 2026-04-18 09:55 | 50.04335 | 8.56824 | 360 ft | 10 kts | 11° |
| 2026-04-18 09:55 | 50.04359 | 8.56832 | 363 ft | 0 kts | 12° |
| 2026-04-18 09:56 | 50.04369 | 8.56835 | 364 ft | 5 kts | 10° |
| 2026-04-18 09:56 | 50.04424 | 8.56849 | 360 ft | 9 kts | 9° |
| 2026-04-18 09:56 | 50.04482 | 8.56865 | 359 ft | 10 kts | 13° |
| 2026-04-18 09:57 | 50.04557 | 8.56893 | 359 ft | 11 kts | 14° |
| 2026-04-18 09:57 | 50.04650 | 8.56933 | 360 ft | 14 kts | 22° |
| 2026-04-18 09:57 | 50.04735 | 8.56994 | 356 ft | 11 kts | 25° |
| 2026-04-18 09:57 | 50.04786 | 8.56976 | 362 ft | 7 kts | 298° |
| 2026-04-18 09:58 | 50.04800 | 8.56925 | 356 ft | 3 kts | 294° |
| 2026-04-18 09:58 | 50.04802 | 8.56915 | 356 ft | 0 kts | 294° |